createdAt,value
2019-05-10T00:00:29.089Z,11.40
2019-05-10T00:03:16.140Z,11.50
2019-05-10T00:06:03.625Z,11.50
2019-05-10T00:08:47.889Z,11.40
2019-05-10T00:11:31.606Z,11.40
2019-05-10T00:14:22.205Z,11.50
2019-05-10T00:16:55.053Z,11.50
2019-05-10T00:19:27.165Z,11.50
2019-05-10T00:21:56.812Z,11.50
2019-05-10T00:24:28.731Z,11.50
2019-05-10T00:26:58.469Z,11.50
2019-05-10T00:29:27.890Z,11.50
2019-05-10T00:31:58.171Z,11.50
2019-05-10T00:34:29.345Z,11.50
2019-05-10T00:36:59.295Z,11.50
2019-05-10T00:39:28.721Z,11.40
2019-05-10T00:41:58.104Z,11.30
2019-05-10T00:44:27.493Z,11.30
2019-05-10T00:46:57.895Z,11.30
2019-05-10T00:49:27.562Z,11.30
2019-05-10T00:51:56.940Z,11.40
2019-05-10T00:54:26.403Z,11.40
2019-05-10T00:56:55.793Z,11.40
2019-05-10T00:59:27.775Z,11.40
2019-05-10T01:01:57.173Z,11.40
2019-05-10T01:04:29.727Z,11.40
2019-05-10T01:06:59.670Z,11.40
2019-05-10T01:09:29.224Z,11.40
2019-05-10T01:11:58.613Z,11.40
2019-05-10T01:14:30.556Z,11.40
2019-05-10T01:16:59.960Z,11.40
2019-05-10T01:19:29.421Z,11.50
2019-05-10T01:21:58.797Z,11.50
2019-05-10T01:24:29.126Z,11.40
2019-05-10T01:26:59.252Z,11.40
2019-05-10T01:29:29.247Z,11.40
2019-05-10T01:32:00.632Z,11.40
2019-05-10T01:34:30.472Z,11.40
2019-05-10T01:37:00.052Z,11.40
2019-05-10T01:39:29.987Z,11.40
2019-05-10T01:41:59.370Z,11.30
2019-05-10T01:44:29.124Z,11.20
2019-05-10T01:46:58.800Z,11.10
2019-05-10T01:49:28.990Z,11.00
2019-05-10T01:51:58.320Z,11.00
2019-05-10T01:54:28.336Z,11.00
2019-05-10T01:56:57.724Z,10.90
2019-05-10T01:59:27.432Z,10.90
2019-05-10T02:01:56.845Z,10.70
2019-05-10T02:04:26.298Z,10.70
2019-05-10T02:06:55.710Z,10.60
2019-05-10T02:09:25.681Z,10.50
2019-05-10T02:11:55.004Z,10.50
2019-05-10T02:14:24.821Z,10.50
2019-05-10T02:16:54.957Z,10.50
2019-05-10T02:19:25.718Z,10.40
2019-05-10T02:21:55.088Z,10.50
2019-05-10T02:24:25.847Z,10.50
2019-05-10T02:26:56.571Z,10.40
2019-05-10T02:29:26.326Z,10.50
2019-05-10T02:31:55.668Z,10.50
2019-05-10T02:34:25.069Z,10.50
2019-05-10T02:36:54.572Z,10.50
2019-05-10T02:39:25.762Z,10.50
2019-05-10T02:41:55.176Z,10.50
2019-05-10T02:44:24.936Z,10.50
2019-05-10T02:46:54.370Z,10.50
2019-05-10T02:49:23.770Z,10.40
2019-05-10T02:51:53.157Z,10.30
2019-05-10T02:54:24.614Z,10.30
2019-05-10T02:56:54.400Z,10.20
2019-05-10T02:59:24.193Z,10.10
2019-05-10T03:01:56.951Z,10.10
2019-05-10T03:04:27.831Z,10.00
2019-05-10T03:07:06.306Z,9.90
2019-05-10T03:09:39.733Z,9.90
2019-05-10T03:12:24.613Z,9.90
2019-05-10T03:14:56.007Z,9.90
2019-05-10T03:17:27.174Z,9.80
2019-05-10T03:19:57.358Z,9.80
2019-05-10T03:22:28.354Z,9.80
2019-05-10T03:24:57.684Z,9.70
2019-05-10T03:27:27.068Z,9.60
2019-05-10T03:29:56.493Z,9.60
2019-05-10T03:32:26.761Z,9.60
2019-05-10T03:34:57.154Z,9.60
2019-05-10T03:37:27.199Z,9.50
2019-05-10T03:39:57.410Z,9.50
2019-05-10T03:42:26.782Z,9.40
2019-05-10T03:44:57.554Z,9.40
2019-05-10T03:47:26.957Z,9.50
2019-05-10T03:49:57.069Z,9.40
2019-05-10T03:52:27.640Z,9.50
2019-05-10T03:54:57.006Z,9.40
2019-05-10T03:57:26.771Z,9.40
2019-05-10T03:59:56.837Z,9.40
2019-05-10T04:02:29.029Z,9.30
2019-05-10T04:04:59.339Z,9.30
2019-05-10T04:07:29.009Z,9.40
2019-05-10T04:09:58.489Z,9.30
2019-05-10T04:12:29.220Z,9.30
2019-05-10T04:14:58.596Z,9.40
2019-05-10T04:17:28.450Z,9.50
2019-05-10T04:19:57.836Z,9.50
2019-05-10T04:22:28.361Z,9.50
2019-05-10T04:25:00.975Z,9.40
2019-05-10T04:27:37.146Z,9.40
2019-05-10T04:30:09.433Z,9.40
2019-05-10T04:32:38.823Z,9.40
2019-05-10T04:35:09.909Z,9.40
2019-05-10T04:37:40.255Z,9.30
2019-05-10T04:40:11.135Z,9.40
2019-05-10T04:42:41.952Z,9.40
2019-05-10T04:45:12.778Z,9.50
2019-05-10T04:47:42.970Z,9.60
2019-05-10T04:50:13.551Z,9.70
2019-05-10T04:52:48.944Z,9.70
2019-05-10T04:55:19.342Z,9.80
2019-05-10T04:57:51.868Z,9.90
2019-05-10T05:00:22.837Z,9.90
2019-05-10T05:02:54.294Z,9.90
2019-05-10T05:05:24.233Z,9.70
2019-05-10T05:07:53.729Z,9.70
2019-05-10T05:10:23.515Z,9.70
2019-05-10T05:12:54.164Z,9.80
2019-05-10T05:15:24.693Z,9.90
2019-05-10T05:17:54.472Z,10.10
2019-05-10T05:20:24.394Z,10.10
2019-05-10T05:22:55.413Z,10.30
2019-05-10T05:25:24.793Z,10.40
2019-05-10T05:28:07.388Z,10.50
2019-05-10T05:30:26.104Z,10.60
2019-05-10T05:32:57.018Z,10.70
2019-05-10T05:35:26.993Z,10.80
2019-05-10T05:37:56.401Z,10.90
2019-05-10T05:40:26.437Z,11.00
2019-05-10T05:42:55.855Z,11.20
2019-05-10T05:45:28.356Z,11.70
2019-05-10T05:47:56.967Z,12.10
2019-05-10T05:50:29.840Z,12.30
2019-05-10T05:52:59.720Z,12.30
2019-05-10T05:55:32.004Z,12.40
2019-05-10T05:58:04.732Z,12.50
2019-05-10T06:00:37.745Z,12.60
2019-05-10T06:03:03.737Z,12.90
2019-05-10T06:05:36.797Z,12.90
2019-05-10T06:08:21.881Z,12.90
2019-05-10T06:10:36.236Z,12.90
2019-05-10T06:13:05.637Z,12.70
2019-05-10T06:15:35.436Z,13.10
2019-05-10T06:18:09.797Z,13.20
2019-05-10T06:20:38.237Z,13.70
2019-05-10T06:23:08.194Z,14.10
2019-05-10T06:25:40.554Z,13.80
2019-05-10T06:28:25.046Z,13.70
2019-05-10T06:30:39.916Z,13.80
2019-05-10T06:33:12.568Z,14.30
2019-05-10T06:35:42.016Z,14.80
2019-05-10T06:38:12.399Z,15.40
2019-05-10T06:40:47.133Z,15.70
2019-05-10T06:43:15.571Z,14.90
2019-05-10T06:45:46.594Z,14.60
2019-05-10T06:48:25.757Z,14.20
2019-05-10T06:50:47.270Z,13.90
2019-05-10T06:53:23.391Z,13.50
2019-05-10T06:55:53.213Z,13.30
2019-05-10T06:58:22.588Z,13.10
2019-05-10T07:00:56.064Z,13.00
2019-05-10T07:03:26.623Z,12.90
2019-05-10T07:05:59.561Z,12.90
2019-05-10T07:08:43.392Z,12.90
2019-05-10T07:11:03.688Z,12.80
2019-05-10T07:13:34.435Z,12.80
2019-05-10T07:16:06.430Z,12.80
2019-05-10T07:18:39.008Z,12.80
2019-05-10T07:21:08.748Z,12.90
2019-05-10T07:23:44.264Z,13.00
2019-05-10T07:26:10.389Z,13.40
2019-05-10T07:28:39.721Z,13.60
2019-05-10T07:31:09.736Z,13.70
2019-05-10T07:33:40.268Z,13.70
2019-05-10T07:36:14.695Z,13.60
2019-05-10T07:38:43.042Z,13.60
2019-05-10T07:41:12.377Z,14.10
2019-05-10T07:43:42.049Z,14.20
2019-05-10T07:46:11.655Z,14.10
2019-05-10T07:48:47.264Z,13.70
2019-05-10T07:51:16.616Z,13.40
2019-05-10T07:53:50.705Z,13.20
2019-05-10T07:56:20.468Z,12.80
2019-05-10T07:58:51.008Z,12.30
2019-05-10T08:01:31.859Z,12.10
2019-05-10T08:03:53.135Z,11.80
2019-05-10T08:06:23.656Z,11.70
2019-05-10T08:08:55.296Z,11.50
2019-05-10T08:11:28.509Z,11.30
2019-05-10T08:14:05.834Z,11.30
2019-05-10T08:16:30.946Z,11.30
2019-05-10T08:19:02.399Z,11.30
2019-05-10T08:21:32.389Z,11.40
2019-05-10T08:24:05.647Z,11.50
2019-05-10T08:26:37.179Z,11.40
2019-05-10T08:29:07.630Z,11.40
2019-05-10T08:31:50.512Z,11.50
2019-05-10T08:34:11.768Z,11.50
2019-05-10T08:36:43.434Z,11.90
2019-05-10T08:39:14.126Z,12.30
2019-05-10T08:41:45.777Z,13.10
2019-05-10T08:44:21.057Z,13.50
2019-05-10T08:46:49.369Z,14.50
2019-05-10T08:49:22.102Z,16.90
2019-05-10T08:51:53.600Z,17.30
2019-05-10T08:54:26.465Z,18.40
2019-05-10T08:59:42.702Z,22.00
2019-05-10T09:02:12.843Z,23.10
2019-05-10T09:04:49.912Z,24.90
2019-05-10T09:07:15.425Z,26.10
2019-05-10T09:09:49.626Z,25.40
2019-05-10T09:12:17.232Z,24.90
2019-05-10T09:14:49.034Z,25.40
2019-05-10T09:17:23.626Z,25.70
2019-05-10T09:19:51.802Z,25.40
2019-05-10T09:22:25.998Z,24.00
2019-05-10T09:24:53.105Z,23.50
2019-05-10T09:27:23.245Z,24.00
2019-05-10T09:29:53.244Z,24.00
2019-05-10T09:32:28.650Z,22.50
2019-05-10T09:34:59.718Z,20.60
2019-05-10T09:37:28.319Z,19.50
2019-05-10T09:40:08.099Z,18.90
2019-05-10T09:42:37.673Z,18.30
2019-05-10T09:45:03.296Z,17.70
2019-05-10T09:47:33.139Z,17.30
2019-05-10T09:50:03.162Z,17.60
2019-05-10T09:52:33.882Z,18.00
2019-05-10T09:55:09.086Z,18.20
2019-05-10T09:57:37.825Z,18.10
2019-05-10T10:00:10.569Z,18.50
2019-05-10T10:02:40.648Z,18.90
2019-05-10T10:05:12.401Z,19.30
2019-05-10T10:07:42.999Z,19.00
2019-05-10T10:10:17.822Z,18.60
2019-05-10T10:12:47.530Z,18.40
2019-05-10T10:15:28.347Z,18.30
2019-05-10T10:17:49.396Z,18.80
2019-05-10T10:20:23.218Z,19.10
2019-05-10T10:22:54.638Z,19.10
2019-05-10T10:25:27.787Z,18.80
2019-05-10T10:27:57.432Z,18.50
2019-05-10T10:30:30.961Z,18.10
2019-05-10T10:32:58.696Z,17.30
2019-05-10T10:35:29.865Z,16.80
2019-05-10T10:38:02.920Z,16.70
2019-05-10T10:40:35.456Z,16.60
2019-05-10T10:43:01.998Z,16.30
2019-05-10T10:45:31.829Z,15.90
2019-05-10T10:48:02.515Z,15.50
2019-05-10T10:50:32.936Z,15.30
2019-05-10T10:53:08.047Z,15.00
2019-05-10T10:55:40.366Z,15.20
2019-05-10T10:58:10.234Z,15.50
2019-05-10T11:00:40.612Z,16.00
2019-05-10T11:03:10.619Z,16.30
2019-05-10T11:05:40.425Z,16.50
2019-05-10T11:08:11.138Z,16.90
2019-05-10T11:10:42.972Z,17.00
2019-05-10T11:13:19.000Z,17.30
2019-05-10T11:15:45.434Z,17.40
2019-05-10T11:18:16.863Z,17.50
2019-05-10T11:20:49.276Z,17.70
2019-05-10T11:23:24.502Z,17.80
2019-05-10T11:25:56.512Z,17.80
2019-05-10T11:28:31.993Z,18.00
2019-05-10T11:30:56.867Z,18.20
2019-05-10T11:33:30.140Z,18.20
2019-05-10T11:36:03.985Z,18.10
2019-05-10T11:38:31.874Z,18.40
2019-05-10T11:41:07.049Z,18.50
2019-05-10T11:43:41.743Z,18.40
2019-05-10T11:46:12.909Z,18.20
2019-05-10T11:48:43.621Z,18.00
2019-05-10T11:51:17.405Z,18.10
2019-05-10T11:53:48.838Z,18.10
2019-05-10T11:56:25.045Z,18.20
2019-05-10T11:58:55.403Z,18.20
2019-05-10T12:01:22.339Z,18.40
2019-05-10T12:03:55.353Z,18.60
2019-05-10T12:06:26.446Z,18.30
2019-05-10T12:09:01.063Z,17.90
2019-05-10T12:11:33.535Z,17.70
2019-05-10T12:14:02.138Z,17.80
2019-05-10T12:16:33.356Z,18.00
2019-05-10T12:19:10.577Z,17.90
2019-05-10T12:21:33.548Z,18.20
2019-05-10T12:24:26.098Z,18.20
2019-05-10T12:29:17.504Z,17.90
2019-05-10T12:31:55.151Z,17.70
2019-05-10T12:34:20.692Z,17.90
2019-05-10T12:36:51.985Z,17.90
2019-05-10T12:39:30.837Z,17.70
2019-05-10T12:41:57.189Z,17.90
2019-05-10T12:44:27.384Z,18.00
2019-05-10T12:47:01.157Z,18.10
2019-05-10T12:49:36.503Z,18.40
2019-05-10T12:52:09.082Z,18.70
2019-05-10T12:54:38.344Z,18.50
2019-05-10T12:57:08.049Z,18.60
2019-05-10T12:59:41.052Z,18.90
2019-05-10T13:02:13.228Z,18.70
2019-05-10T13:04:47.050Z,18.60
2019-05-10T13:07:18.405Z,18.60
2019-05-10T13:09:50.275Z,18.60
2019-05-10T13:12:19.880Z,18.70
2019-05-10T13:14:53.075Z,18.80
2019-05-10T13:17:23.570Z,18.80
2019-05-10T13:20:00.640Z,18.70
2019-05-10T13:22:36.655Z,18.40
2019-05-10T13:25:02.769Z,17.90
2019-05-10T13:27:32.210Z,17.30
2019-05-10T13:30:01.790Z,17.00
2019-05-10T13:32:33.641Z,16.80
2019-05-10T13:35:03.058Z,17.00
2019-05-10T13:37:33.717Z,17.60
2019-05-10T13:40:07.594Z,18.00
2019-05-10T13:42:36.550Z,18.40
2019-05-10T13:45:08.100Z,18.60
2019-05-10T13:47:44.296Z,18.40
2019-05-10T13:50:15.291Z,18.40
2019-05-10T13:52:48.801Z,18.20
2019-05-10T13:55:18.934Z,18.30
2019-05-10T13:57:54.168Z,18.50
2019-05-10T14:00:33.442Z,18.50
2019-05-10T14:02:56.355Z,18.30
2019-05-10T14:05:28.230Z,18.30
2019-05-10T14:07:57.788Z,18.20
2019-05-10T14:10:27.204Z,18.10
2019-05-10T14:13:02.637Z,18.00
2019-05-10T14:15:31.321Z,17.90
2019-05-10T14:18:04.095Z,18.00
2019-05-10T14:20:34.083Z,18.00
2019-05-10T14:23:03.475Z,18.20
2019-05-10T14:25:38.758Z,18.30
2019-05-10T14:28:09.771Z,18.40
2019-05-10T14:30:39.995Z,18.30
2019-05-10T14:33:14.775Z,18.20
2019-05-10T14:35:41.306Z,18.20
2019-05-10T14:38:11.477Z,18.00
2019-05-10T14:40:41.769Z,17.90
2019-05-10T14:43:12.349Z,17.70
2019-05-10T14:45:41.762Z,17.60
2019-05-10T14:48:12.319Z,17.40
2019-05-10T14:50:46.233Z,17.20
2019-05-10T14:53:14.048Z,16.90
2019-05-10T14:55:43.716Z,17.00
2019-05-10T14:58:13.669Z,17.30
2019-05-10T15:01:02.585Z,17.40
2019-05-10T15:03:35.338Z,17.50
2019-05-10T15:06:05.043Z,17.60
2019-05-10T15:08:36.243Z,17.90
2019-05-10T15:11:06.239Z,18.20
2019-05-10T15:13:38.829Z,18.30
2019-05-10T15:16:12.620Z,18.00
2019-05-10T15:18:39.272Z,18.20
2019-05-10T15:21:08.652Z,18.50
2019-05-10T15:23:38.712Z,18.70
2019-05-10T15:26:11.438Z,18.70
2019-05-10T15:28:42.414Z,18.50
2019-05-10T15:31:12.929Z,18.40
2019-05-10T15:33:42.255Z,18.30
2019-05-10T15:36:15.825Z,18.20
2019-05-10T15:38:51.957Z,18.00
2019-05-10T15:41:22.258Z,17.70
2019-05-10T15:43:53.585Z,17.80
2019-05-10T15:46:23.411Z,17.80
2019-05-10T15:48:52.914Z,17.80
2019-05-10T15:51:35.354Z,17.90
2019-05-10T15:54:03.673Z,17.90
2019-05-10T15:56:24.643Z,17.70
2019-05-10T15:58:59.759Z,17.50
2019-05-10T16:01:35.132Z,17.40
2019-05-10T16:04:10.780Z,17.40
2019-05-10T16:06:40.064Z,17.20
2019-05-10T16:09:17.661Z,17.10
2019-05-10T16:11:48.552Z,17.10
2019-05-10T16:14:18.789Z,17.00
2019-05-10T16:16:48.197Z,16.90
2019-05-10T16:19:20.188Z,16.60
2019-05-10T16:21:52.203Z,16.50
2019-05-10T16:24:27.653Z,16.50
2019-05-10T16:26:54.465Z,16.50
2019-05-10T16:29:24.944Z,16.60
2019-05-10T16:31:56.204Z,16.80
2019-05-10T16:34:26.327Z,17.10
2019-05-10T16:37:01.866Z,17.30
2019-05-10T16:39:32.769Z,17.50
2019-05-10T16:42:02.124Z,17.70
2019-05-10T16:44:32.000Z,17.70
2019-05-10T16:47:01.985Z,17.50
2019-05-10T16:49:31.377Z,17.60
2019-05-10T16:52:01.060Z,17.50
2019-05-10T16:54:33.969Z,17.40
2019-05-10T16:57:03.344Z,17.20
2019-05-10T16:59:35.182Z,17.10
2019-05-10T17:02:06.234Z,17.20
2019-05-10T17:04:37.370Z,17.10
2019-05-10T17:07:06.224Z,17.00
2019-05-10T17:09:36.084Z,16.80
2019-05-10T17:12:05.529Z,16.70
2019-05-10T17:14:35.075Z,16.70
2019-05-10T17:17:04.845Z,16.50
2019-05-10T17:19:36.078Z,16.50
2019-05-10T17:22:05.386Z,16.60
2019-05-10T17:24:37.285Z,16.70
2019-05-10T17:27:07.882Z,16.60
2019-05-10T17:29:38.139Z,16.60
2019-05-10T17:32:07.592Z,16.60
2019-05-10T17:34:42.778Z,16.40
2019-05-10T17:37:12.584Z,16.30
2019-05-10T17:39:42.293Z,16.30
2019-05-10T17:42:12.219Z,16.30
2019-05-10T17:44:43.705Z,16.10
2019-05-10T17:47:13.826Z,16.00
2019-05-10T17:49:45.578Z,15.90
2019-05-10T17:52:20.711Z,15.90
2019-05-10T17:54:52.088Z,15.80
2019-05-10T17:57:22.066Z,15.70
2019-05-10T18:00:03.273Z,15.60
2019-05-10T18:02:33.245Z,15.60
2019-05-10T18:05:06.227Z,15.60
2019-05-10T18:07:34.535Z,15.70
2019-05-10T18:10:04.901Z,15.70
2019-05-10T18:12:36.004Z,15.70
2019-05-10T18:15:05.924Z,15.60
2019-05-10T18:17:36.232Z,15.60
2019-05-10T18:20:08.263Z,15.60
2019-05-10T18:22:43.395Z,15.50
2019-05-10T18:25:19.264Z,15.40
2019-05-10T18:27:42.733Z,15.30
2019-05-10T18:30:12.966Z,15.30
2019-05-10T18:32:46.812Z,15.30
2019-05-10T18:35:21.100Z,15.30
2019-05-10T18:37:53.696Z,15.30
2019-05-10T18:40:25.136Z,15.30
2019-05-10T18:42:57.963Z,15.20
2019-05-10T18:45:28.634Z,15.20
2019-05-10T18:47:57.284Z,15.10
2019-05-10T18:50:26.972Z,15.00
2019-05-10T18:52:59.650Z,15.00
2019-05-10T18:55:30.722Z,15.00
2019-05-10T18:58:01.264Z,14.90
2019-05-10T19:00:30.577Z,14.90
2019-05-10T19:03:02.796Z,14.90
2019-05-10T19:05:33.208Z,14.90
2019-05-10T19:08:06.287Z,14.90
2019-05-10T19:10:37.435Z,14.90
2019-05-10T19:13:08.880Z,14.90
2019-05-10T19:15:46.129Z,14.90
2019-05-10T19:18:17.799Z,14.90
2019-05-10T19:20:48.931Z,14.80
2019-05-10T19:23:23.939Z,14.80
2019-05-10T19:25:53.924Z,14.60
2019-05-10T19:28:26.716Z,14.60
2019-05-10T19:30:58.849Z,14.40
2019-05-10T19:33:29.703Z,14.30
2019-05-10T19:36:02.438Z,14.40
2019-05-10T19:38:31.803Z,14.30
2019-05-10T19:41:01.985Z,14.30
2019-05-10T19:43:31.328Z,14.30
2019-05-10T19:46:00.847Z,14.30
2019-05-10T19:48:35.701Z,14.20
2019-05-10T19:51:09.674Z,14.20
2019-05-10T19:53:42.225Z,14.10
2019-05-10T19:56:12.098Z,14.00
2019-05-10T19:58:42.761Z,13.90
2019-05-10T20:01:12.138Z,13.80
2019-05-10T20:03:41.793Z,13.70
2019-05-10T20:06:11.481Z,13.50
2019-05-10T20:08:41.890Z,13.50
2019-05-10T20:11:12.127Z,13.40
2019-05-10T20:13:41.460Z,13.40
2019-05-10T20:16:10.861Z,13.40
2019-05-10T20:18:40.421Z,13.40
2019-05-10T20:21:09.809Z,13.40
2019-05-10T20:23:39.304Z,13.40
2019-05-10T20:26:15.854Z,13.40
2019-05-10T20:28:48.477Z,13.40
2019-05-10T20:31:18.291Z,13.30
2019-05-10T20:33:47.818Z,13.30
2019-05-10T20:36:22.368Z,13.40
2019-05-10T20:39:00.776Z,13.40
2019-05-10T20:41:29.772Z,13.40
2019-05-10T20:43:59.841Z,13.40
2019-05-10T20:46:29.766Z,13.50
2019-05-10T20:49:01.020Z,13.40
2019-05-10T20:51:31.505Z,13.40
2019-05-10T20:54:01.096Z,13.40
2019-05-10T20:56:32.087Z,13.40
2019-05-10T20:59:01.614Z,13.50
2019-05-10T21:01:34.969Z,13.40
2019-05-10T21:04:04.501Z,13.30
2019-05-10T21:06:33.984Z,13.40
2019-05-10T21:09:05.283Z,13.40
2019-05-10T21:11:35.580Z,13.40
2019-05-10T21:14:10.236Z,13.40
2019-05-10T21:16:39.974Z,13.40
2019-05-10T21:19:10.606Z,13.40
2019-05-10T21:21:41.671Z,13.40
2019-05-10T21:24:11.531Z,13.40
2019-05-10T21:26:41.661Z,13.40
2019-05-10T21:29:11.260Z,13.40
2019-05-10T21:31:40.955Z,13.40
2019-05-10T21:34:10.596Z,13.40
2019-05-10T21:36:40.222Z,13.40
2019-05-10T21:39:09.642Z,13.40
2019-05-10T21:41:41.444Z,13.30
2019-05-10T21:44:11.746Z,13.30
2019-05-10T21:46:41.953Z,13.20
2019-05-10T21:49:12.150Z,13.20
2019-05-10T21:51:41.980Z,13.30
2019-05-10T21:54:13.608Z,13.30
2019-05-10T21:56:44.855Z,13.30
2019-05-10T21:59:14.194Z,13.30
2019-05-10T22:01:43.839Z,13.30
2019-05-10T22:04:13.803Z,13.30
2019-05-10T22:06:43.228Z,13.30
2019-05-10T22:09:12.657Z,13.30
2019-05-10T22:11:42.637Z,13.20
2019-05-10T22:14:12.010Z,13.20
2019-05-10T22:16:44.117Z,13.30
2019-05-10T22:19:13.544Z,13.30
2019-05-10T22:21:45.803Z,13.30
2019-05-10T22:24:16.207Z,13.40
2019-05-10T22:26:46.309Z,13.30
2019-05-10T22:29:17.230Z,13.30
2019-05-10T22:31:46.652Z,13.30
2019-05-10T22:34:17.749Z,13.20
2019-05-10T22:36:48.445Z,13.10
2019-05-10T22:39:18.435Z,13.10
2019-05-10T22:41:48.572Z,13.10
2019-05-10T22:44:18.493Z,13.10
2019-05-10T22:46:48.542Z,13.10
2019-05-10T22:49:18.160Z,13.20
2019-05-10T22:51:48.431Z,13.20
2019-05-10T22:54:19.200Z,13.20
2019-05-10T22:56:48.612Z,13.20
2019-05-10T22:59:18.143Z,13.20
2019-05-10T23:01:47.795Z,13.20
2019-05-10T23:04:18.492Z,13.20
2019-05-10T23:06:48.245Z,13.10
2019-05-10T23:09:24.459Z,13.10
2019-05-10T23:11:49.746Z,13.00
2019-05-10T23:14:21.348Z,13.00
2019-05-10T23:16:50.928Z,13.00
2019-05-10T23:19:21.440Z,13.00
2019-05-10T23:21:51.689Z,13.00
2019-05-10T23:24:22.679Z,13.00
2019-05-10T23:26:54.424Z,13.10
2019-05-10T23:29:23.821Z,13.00
2019-05-10T23:31:54.484Z,13.00
2019-05-10T23:34:24.993Z,13.00
2019-05-10T23:36:56.145Z,13.00
2019-05-10T23:39:39.519Z,12.90
2019-05-10T23:41:58.190Z,12.90
2019-05-10T23:44:28.635Z,12.90
2019-05-10T23:46:58.084Z,12.90
2019-05-10T23:49:28.037Z,12.80
2019-05-10T23:51:57.438Z,12.80
2019-05-10T23:54:27.358Z,12.90
2019-05-10T23:57:01.069Z,12.90
2019-05-10T23:59:31.964Z,12.90
